Time;durP1;ratioP1;P1;durP2;ratioP2;P2;SDS_P1;SDS_P2;PMS_P1;PMS_P2;Temp;Humidity;BMP_temperature;BMP_pressure;BME280_temperature;BME280_humidity;BME280_pressure;Samples;Min_cycle;Max_cycle;Signal;HPM_P1;HPM_P2
2022/04/07 00:00:48;;;;;;;;;2.00;1.00;;;;;11.79;68.31;99399.13;4974095;28;45377;-57
2022/04/07 00:03:15;;;;;;;;;0.00;0.00;;;;;11.78;68.60;99393.88;4969711;27;45353;-55
2022/04/07 00:05:40;;;;;;;;;0.33;0.33;;;;;11.75;69.01;99396.81;4961664;28;45252;-57
2022/04/07 00:08:06;;;;;;;;;1.00;1.00;;;;;11.78;68.73;99392.06;4969496;27;45235;-56
2022/04/07 00:10:33;;;;;;;;;0.00;0.00;;;;;11.78;68.42;99376.09;4954199;28;45521;-56
2022/04/07 00:12:58;;;;;;;;;0.00;0.00;;;;;11.80;68.72;99365.34;4957273;28;45455;-57
2022/04/07 00:15:24;;;;;;;;;1.67;1.00;;;;;11.79;68.61;99369.81;4970738;28;45463;-56
2022/04/07 00:17:49;;;;;;;;;0.00;0.00;;;;;11.80;68.11;99360.84;4954905;28;45371;-57
2022/04/07 00:20:14;;;;;;;;;1.00;1.00;;;;;11.75;68.04;99357.69;4954816;28;45432;-58
2022/04/07 00:22:41;;;;;;;;;0.00;0.00;;;;;11.81;68.05;99372.34;4965392;28;46121;-57
2022/04/07 00:25:06;;;;;;;;;1.00;0.33;;;;;11.84;68.53;99360.59;5009337;28;45502;-57
2022/04/07 00:27:32;;;;;;;;;1.00;1.00;;;;;11.82;67.96;99358.91;4962018;28;45403;-55
2022/04/07 00:29:57;;;;;;;;;1.00;1.00;;;;;11.79;68.29;99358.31;5004438;28;45573;-55
2022/04/07 00:32:23;;;;;;;;;1.00;0.67;;;;;11.76;68.08;99337.22;4986953;28;45614;-57
2022/04/07 00:34:54;;;;;;;;;1.00;1.00;;;;;11.75;68.16;99349.69;4996723;27;45457;-57
2022/04/07 00:37:22;;;;;;;;;2.00;1.00;;;;;11.79;68.37;99366.31;4954357;28;45363;-55
2022/04/07 00:39:47;;;;;;;;;1.00;0.67;;;;;11.75;68.50;99347.03;5002781;28;45432;-57
2022/04/07 00:42:12;;;;;;;;;0.33;0.33;;;;;11.82;67.90;99342.94;5027013;27;45235;-56
2022/04/07 00:44:38;;;;;;;;;1.00;1.00;;;;;11.81;67.54;99330.59;4971057;28;46407;-56
2022/04/07 00:47:03;;;;;;;;;2.67;1.00;;;;;11.82;67.62;99326.94;4965757;28;45232;-57
2022/04/07 00:49:29;;;;;;;;;1.00;1.00;;;;;11.82;67.86;99332.28;4971783;28;45371;-54
2022/04/07 00:51:54;;;;;;;;;0.00;0.00;;;;;11.78;67.46;99317.50;4973538;28;46302;-57
2022/04/07 00:54:20;;;;;;;;;1.00;1.00;;;;;11.81;67.82;99311.09;4970148;28;45774;-55
2022/04/07 00:56:46;;;;;;;;;0.00;0.00;;;;;11.81;67.75;99305.75;4971681;28;45623;-55
2022/04/07 00:59:16;;;;;;;;;1.00;1.00;;;;;11.84;67.51;99297.50;4962741;28;45227;-56
2022/04/07 01:01:41;;;;;;;;;1.33;0.00;;;;;11.84;67.41;99288.69;4965243;28;46295;-56
2022/04/07 01:04:06;;;;;;;;;1.00;1.00;;;;;11.86;67.44;99290.28;4963500;28;45521;-56
2022/04/07 01:06:33;;;;;;;;;0.00;0.00;;;;;11.84;67.51;99284.19;4960696;28;45441;-56
2022/04/07 01:08:59;;;;;;;;;1.00;1.00;;;;;11.85;67.79;99272.59;4955609;28;45539;-56
2022/04/07 01:11:29;;;;;;;;;1.00;1.00;;;;;11.89;67.53;99267.84;4954433;28;46103;-54
2022/04/07 01:13:54;;;;;;;;;4.00;0.67;;;;;11.90;67.50;99261.56;4971331;28;47059;-56
2022/04/07 01:16:26;;;;;;;;;1.00;1.00;;;;;11.83;67.63;99253.19;4954162;28;45508;-54
2022/04/07 01:18:52;;;;;;;;;0.33;0.00;;;;;11.90;67.37;99248.22;4956845;28;45683;-55
2022/04/07 01:21:18;;;;;;;;;1.00;1.00;;;;;11.89;67.58;99251.88;4956573;28;46996;-56
2022/04/07 01:23:59;;;;;;;;;0.00;0.00;;;;;11.85;68.24;99245.09;4959252;28;45548;-57
2022/04/07 01:26:25;;;;;;;;;1.00;1.00;;;;;11.80;68.50;99241.00;4990351;28;45281;-54
2022/04/07 01:28:50;;;;;;;;;0.33;0.33;;;;;11.79;68.07;99247.28;4959347;28;45516;-56
2022/04/07 01:31:16;;;;;;;;;1.50;1.00;;;;;11.71;68.65;99239.03;4958306;28;45744;-57
2022/04/07 01:33:43;;;;;;;;;1.00;1.00;;;;;11.74;68.14;99243.28;4979706;28;45809;-55
2022/04/07 01:36:10;;;;;;;;;0.67;0.67;;;;;11.77;68.93;99246.53;4969702;28;45443;-56
2022/04/07 01:38:36;;;;;;;;;0.00;0.00;;;;;11.75;68.87;99240.50;4964667;28;45277;-57
2022/04/07 01:41:01;;;;;;;;;0.00;0.00;;;;;11.75;69.04;99243.16;4964519;28;45578;-55
2022/04/07 01:43:28;;;;;;;;;0.00;0.00;;;;;11.75;69.22;99223.69;4978256;28;45409;-55
2022/04/07 01:45:54;;;;;;;;;0.00;0.00;;;;;11.65;68.56;99207.59;4975137;28;45212;-55
2022/04/07 01:48:20;;;;;;;;;0.00;0.00;;;;;11.69;69.21;99197.53;4966031;28;45528;-55
2022/04/07 01:50:48;;;;;;;;;1.00;0.00;;;;;11.67;68.85;99205.66;4956196;28;45224;-56
2022/04/07 01:53:14;;;;;;;;;2.00;0.67;;;;;11.60;68.83;99185.84;4952965;28;45520;-56
2022/04/07 01:55:41;;;;;;;;;6.00;0.00;;;;;11.72;68.97;99198.16;4956769;28;45538;-55
2022/04/07 01:58:07;;;;;;;;;2.67;0.00;;;;;11.71;68.99;99204.41;4967793;28;45714;-56
2022/04/07 02:00:32;;;;;;;;;2.33;1.00;;;;;11.69;69.52;99195.72;4973107;27;46383;-57
2022/04/07 02:02:58;;;;;;;;;0.00;0.00;;;;;11.70;70.00;99188.56;4962108;28;45227;-55
2022/04/07 02:05:23;;;;;;;;;2.00;0.00;;;;;11.62;71.89;99197.22;4960704;28;45223;-56
2022/04/07 02:07:49;;;;;;;;;0.00;0.00;;;;;11.55;73.11;99192.50;4966185;28;45523;-56
2022/04/07 02:10:14;;;;;;;;;0.00;0.00;;;;;11.47;73.32;99193.16;4973277;28;45612;-57
2022/04/07 02:12:41;;;;;;;;;2.00;1.00;;;;;11.44;72.69;99194.22;4956798;28;45232;-55
2022/04/07 02:15:11;;;;;;;;;4.00;0.00;;;;;11.44;72.76;99198.69;4966548;28;45456;-56
2022/04/07 02:17:38;;;;;;;;;1.00;1.00;;;;;11.42;73.59;99195.31;4975907;28;45332;-55
2022/04/07 02:20:06;;;;;;;;;2.67;1.00;;;;;11.43;72.34;99186.38;4971156;28;45478;-56
2022/04/07 02:22:31;;;;;;;;;0.00;0.00;;;;;11.42;73.06;99185.53;4959659;28;45169;-55
2022/04/07 02:24:58;;;;;;;;;1.50;1.00;;;;;11.48;72.67;99194.84;4954806;28;45547;-56
2022/04/07 02:27:25;;;;;;;;;1.00;1.00;;;;;11.46;72.81;99175.50;4956250;28;45496;-56
2022/04/07 02:29:50;;;;;;;;;1.00;1.00;;;;;11.52;71.72;99185.63;4956765;28;45544;-54
2022/04/07 02:32:16;;;;;;;;;1.00;1.00;;;;;11.43;73.70;99149.94;4957743;28;45345;-56
2022/04/07 02:34:43;;;;;;;;;2.25;1.00;;;;;11.49;74.03;99153.94;4997413;28;45330;-55
2022/04/07 02:37:09;;;;;;;;;7.50;1.00;;;;;11.42;74.44;99142.09;4966520;28;45493;-57
2022/04/07 02:39:34;;;;;;;;;1.25;1.25;;;;;11.38;74.89;99138.84;4961008;28;46205;-55
2022/04/07 02:42:00;;;;;;;;;6.00;2.00;;;;;11.41;75.28;99140.41;4957634;28;45292;-55
2022/04/07 02:44:25;;;;;;;;;1.00;1.00;;;;;11.39;76.07;99134.38;4969551;28;45347;-57
2022/04/07 02:46:51;;;;;;;;;1.00;0.67;;;;;11.33;75.97;99118.88;4955961;28;45509;-56
2022/04/07 02:49:17;;;;;;;;;1.00;0.00;;;;;11.27;75.79;99104.28;4957859;28;45442;-57
2022/04/07 02:51:45;;;;;;;;;1.33;1.33;;;;;11.29;76.32;99123.63;4963235;28;45452;-55
2022/04/07 02:54:11;;;;;;;;;2.67;1.00;;;;;11.28;76.49;99103.31;4972021;28;45547;-56
2022/04/07 02:56:36;;;;;;;;;1.33;1.33;;;;;11.26;76.32;99093.75;4973825;28;45779;-58
2022/04/07 02:59:03;;;;;;;;;1.00;1.00;;;;;11.26;76.05;99091.09;4974331;28;46203;-56
2022/04/07 03:01:29;;;;;;;;;2.00;0.75;;;;;11.26;77.21;99091.09;4955419;28;45239;-56
2022/04/07 03:03:55;;;;;;;;;1.75;1.00;;;;;11.27;76.95;99084.81;4970880;28;45706;-55
2022/04/07 03:06:21;;;;;;;;;4.25;1.00;;;;;11.27;76.76;99077.66;4970549;28;45578;-56
2022/04/07 03:08:47;;;;;;;;;2.00;1.00;;;;;11.26;76.88;99080.47;4971788;28;46207;-56
2022/04/07 03:11:13;;;;;;;;;1.00;1.00;;;;;11.27;76.78;99074.16;4956626;28;45432;-56
2022/04/07 03:13:39;;;;;;;;;1.75;1.00;;;;;11.28;76.14;99067.84;4955450;28;45431;-56
2022/04/07 03:16:06;;;;;;;;;0.33;0.33;;;;;11.23;76.31;99053.13;4972034;28;45486;-56
2022/04/07 03:18:32;;;;;;;;;2.00;1.00;;;;;11.27;76.21;99052.88;4965658;28;47047;-54
2022/04/07 03:20:58;;;;;;;;;3.75;2.00;;;;;11.29;76.00;99045.59;4961874;28;45322;-56
2022/04/07 03:23:23;;;;;;;;;1.00;1.00;;;;;11.32;76.33;99029.38;4961268;28;45406;-55
2022/04/07 03:25:49;;;;;;;;;1.00;1.00;;;;;11.33;76.24;99031.94;4970416;28;45361;-55
2022/04/07 03:28:14;;;;;;;;;0.00;0.00;;;;;11.28;76.42;99015.47;4967740;28;46266;-55
2022/04/07 03:30:40;;;;;;;;;1.25;1.00;;;;;11.33;76.63;99015.09;4955071;28;45264;-56
2022/04/07 03:33:08;;;;;;;;;2.00;0.25;;;;;11.35;77.46;99000.69;4956187;28;45361;-56
2022/04/07 03:35:36;;;;;;;;;2.33;1.67;;;;;11.34;77.27;98999.00;4991118;28;45524;-56
2022/04/07 03:38:04;;;;;;;;;0.33;0.33;;;;;11.37;77.98;98981.94;4977177;28;45535;-56
2022/04/07 03:40:30;;;;;;;;;2.33;1.00;;;;;11.39;76.53;98977.31;4961229;28;45587;-54
2022/04/07 03:42:55;;;;;;;;;2.75;1.25;;;;;11.45;76.44;98982.09;4956245;28;45319;-55
2022/04/07 03:45:21;;;;;;;;;2.00;1.00;;;;;11.45;77.40;98966.13;4963760;28;45261;-58
2022/04/07 03:47:46;;;;;;;;;2.00;2.00;;;;;11.43;77.45;98947.63;4972470;28;45408;-54
2022/04/07 03:50:12;;;;;;;;;3.00;1.00;;;;;11.48;77.71;98939.28;4962206;28;45572;-57
2022/04/07 03:52:37;;;;;;;;;2.00;2.00;;;;;11.47;77.59;98926.94;4960722;27;45441;-55
2022/04/07 03:55:06;;;;;;;;;3.00;1.75;;;;;11.45;78.12;98915.56;4965024;28;45546;-55
2022/04/07 03:57:32;;;;;;;;;1.67;1.67;;;;;11.50;77.90;98918.69;4954462;28;45394;-57
2022/04/07 03:59:57;;;;;;;;;7.00;1.00;;;;;11.47;78.57;98910.97;4962879;28;45715;-54
2022/04/07 04:02:23;;;;;;;;;2.00;2.00;;;;;11.53;77.95;98910.41;4970230;28;46548;-55
2022/04/07 04:04:49;;;;;;;;;2.75;2.75;;;;;11.50;78.02;98906.22;4965505;28;45611;-56
2022/04/07 04:07:14;;;;;;;;;1.00;1.00;;;;;11.52;77.80;98898.09;4966761;28;46319;-55
2022/04/07 04:09:40;;;;;;;;;2.00;1.00;;;;;11.58;77.40;98900.22;4968735;28;45368;-56
2022/04/07 04:12:06;;;;;;;;;1.00;1.00;;;;;11.59;77.39;98895.72;4967541;28;45914;-54
2022/04/07 04:14:31;;;;;;;;;2.50;1.50;;;;;11.55;77.25;98873.00;4958891;28;45493;-54
2022/04/07 04:16:56;;;;;;;;;1.00;1.00;;;;;11.62;77.36;98874.19;4962125;28;46100;-55
2022/04/07 04:19:22;;;;;;;;;1.00;0.67;;;;;11.62;77.64;98863.53;4968382;28;45376;-56
2022/04/07 04:21:48;;;;;;;;;1.00;1.00;;;;;11.61;78.28;98861.84;4962068;28;45399;-55
2022/04/07 04:24:13;;;;;;;;;1.33;1.00;;;;;11.61;77.90;98853.84;4954600;28;45536;-56
2022/04/07 04:26:39;;;;;;;;;2.00;1.00;;;;;11.66;77.33;98867.59;4954521;28;46029;-59
2022/04/07 04:29:05;;;;;;;;;0.33;0.33;;;;;11.71;77.44;98870.69;4953436;28;45430;-57
2022/04/07 04:31:30;;;;;;;;;2.00;2.00;;;;;11.69;76.87;98852.19;4964180;28;45472;-58
2022/04/07 04:33:56;;;;;;;;;2.67;1.00;;;;;11.75;77.52;98859.66;4967877;28;45531;-56
2022/04/07 04:36:22;;;;;;;;;2.75;2.75;;;;;11.78;76.95;98851.38;4957126;28;45484;-57
2022/04/07 04:38:48;;;;;;;;;1.67;1.00;;;;;11.81;76.69;98858.28;4963774;28;45442;-57
2022/04/07 04:41:14;;;;;;;;;1.67;1.00;;;;;11.81;76.51;98872.44;4972093;28;45371;-56
2022/04/07 04:43:40;;;;;;;;;2.00;2.00;;;;;11.82;76.62;98842.16;4972885;28;45543;-56
2022/04/07 04:46:06;;;;;;;;;1.33;0.00;;;;;11.86;77.74;98839.25;4973325;28;46241;-56
2022/04/07 04:48:32;;;;;;;;;1.00;1.00;;;;;11.81;76.53;98837.81;4966620;28;45921;-57
2022/04/07 04:50:57;;;;;;;;;1.00;1.00;;;;;11.86;76.84;98831.25;4963045;28;45398;-56
2022/04/07 04:53:24;;;;;;;;;0.00;0.00;;;;;11.91;77.45;98842.34;4963498;28;45403;-56
2022/04/07 04:55:49;;;;;;;;;2.00;2.00;;;;;11.92;76.66;98836.03;4974442;28;47233;-55
2022/04/07 04:58:15;;;;;;;;;3.67;1.00;;;;;11.90;76.17;98822.00;4974710;28;45445;-56
2022/04/07 05:00:41;;;;;;;;;3.00;2.00;;;;;11.96;76.15;98832.94;4962876;28;46002;-56
2022/04/07 05:03:07;;;;;;;;;3.00;1.00;;;;;11.94;76.31;98823.41;4965364;27;45548;-57
2022/04/07 05:05:32;;;;;;;;;4.00;2.00;;;;;12.00;76.13;98804.22;4957645;28;45509;-55
2022/04/07 05:07:58;;;;;;;;;1.67;1.00;;;;;11.99;75.74;98789.22;4968992;28;45572;-56
2022/04/07 05:10:24;;;;;;;;;1.00;1.00;;;;;12.06;75.66;98812.50;4974573;28;45258;-56
2022/04/07 05:12:50;;;;;;;;;3.00;1.67;;;;;12.04;75.02;98798.47;4973501;28;45470;-57
2022/04/07 05:15:16;;;;;;;;;3.00;2.00;;;;;12.08;75.41;98805.19;4971975;28;46877;-58
2022/04/07 05:17:42;;;;;;;;;1.67;1.67;;;;;12.17;74.82;98803.53;4974058;28;45935;-56
2022/04/07 05:20:08;;;;;;;;;1.33;1.33;;;;;12.21;74.44;98804.91;4977139;28;45516;-55
2022/04/07 05:22:33;;;;;;;;;1.00;1.00;;;;;12.22;74.88;98795.94;5034836;28;45652;-56
2022/04/07 05:24:59;;;;;;;;;2.67;2.67;;;;;12.24;74.46;98796.66;5008263;28;46216;-57
2022/04/07 05:27:28;;;;;;;;;1.67;0.33;;;;;12.25;74.65;98801.00;5025018;27;45360;-57
2022/04/07 05:29:53;;;;;;;;;2.00;0.33;;;;;12.29;73.88;98785.56;4964352;28;45543;-57
2022/04/07 05:32:19;;;;;;;;;0.33;0.33;;;;;12.35;73.94;98785.00;4966207;27;45569;-55
2022/04/07 05:34:44;;;;;;;;;4.00;1.00;;;;;12.37;73.87;98773.22;4970710;28;46410;-55
2022/04/07 05:37:10;;;;;;;;;3.33;2.00;;;;;12.38;74.39;98774.91;4964953;28;45276;-53
2022/04/07 05:39:36;;;;;;;;;1.67;0.00;;;;;12.39;74.10;98762.44;4956645;28;45321;-57
2022/04/07 05:42:01;;;;;;;;;2.67;1.00;;;;;12.34;73.91;98754.84;4960717;28;45545;-57
2022/04/07 05:44:27;;;;;;;;;1.00;1.00;;;;;12.42;73.45;98748.81;4971833;28;46009;-56
2022/04/07 05:46:52;;;;;;;;;1.00;1.00;;;;;12.39;73.09;98751.75;4997089;27;45554;-57
2022/04/07 05:49:18;;;;;;;;;0.00;0.00;;;;;12.37;72.69;98738.59;4975630;28;45288;-56
2022/04/07 05:51:43;;;;;;;;;0.00;0.00;;;;;12.44;72.95;98746.00;4973264;28;45996;-57
2022/04/07 05:54:09;;;;;;;;;0.00;0.00;;;;;12.49;72.63;98743.72;4956233;28;45432;-57
2022/04/07 05:56:34;;;;;;;;;3.00;1.00;;;;;12.52;72.55;98759.47;4969875;28;45511;-57
2022/04/07 05:58:59;;;;;;;;;1.00;1.00;;;;;12.54;72.31;98762.81;4974794;28;45234;-56
2022/04/07 06:01:25;;;;;;;;;1.00;1.00;;;;;12.55;72.33;98743.16;4973244;28;45425;-57
2022/04/07 06:03:50;;;;;;;;;1.00;1.00;;;;;12.56;72.44;98742.19;4968453;28;45434;-56
2022/04/07 06:06:16;;;;;;;;;0.00;0.00;;;;;12.51;72.19;98731.97;4966680;28;46882;-54
2022/04/07 06:08:41;;;;;;;;;0.00;0.00;;;;;12.59;72.31;98745.41;4984258;28;45474;-54
2022/04/07 06:11:06;;;;;;;;;1.00;1.00;;;;;12.58;72.15;98729.53;4976812;28;45519;-58
2022/04/07 06:13:32;;;;;;;;;0.00;0.00;;;;;12.61;71.34;98748.75;4975052;28;47451;-56
2022/04/07 06:15:57;;;;;;;;;0.00;0.00;;;;;12.65;71.75;98746.66;4975324;28;45375;-53
2022/04/07 06:18:23;;;;;;;;;2.00;1.00;;;;;12.66;71.68;98735.00;4972380;28;45513;-58
2022/04/07 06:20:48;;;;;;;;;1.67;1.67;;;;;12.68;71.27;98733.88;4956066;28;45438;-56
2022/04/07 06:23:13;;;;;;;;;0.00;0.00;;;;;12.69;70.89;98746.22;4963117;28;45533;-52
2022/04/07 06:25:39;;;;;;;;;2.00;1.00;;;;;12.70;71.05;98729.22;4973517;28;45313;-53
2022/04/07 06:28:05;;;;;;;;;1.67;1.00;;;;;12.67;71.13;98723.34;4966080;28;45271;-54
2022/04/07 06:30:30;;;;;;;;;3.00;1.67;;;;;12.65;70.96;98714.66;4954513;28;45318;-48
2022/04/07 06:32:56;;;;;;;;;2.00;1.00;;;;;12.78;71.69;98728.53;4957319;28;45464;-53
2022/04/07 06:35:22;;;;;;;;;0.33;0.33;;;;;12.75;71.61;98707.44;4974281;28;45391;-55
2022/04/07 06:37:52;;;;;;;;;0.00;0.00;;;;;12.68;72.09;98709.03;4963563;28;45466;-53
2022/04/07 06:40:22;;;;;;;;;2.00;1.00;;;;;12.61;72.29;98722.09;4971112;28;45485;-55
2022/04/07 06:42:48;;;;;;;;;2.00;2.00;;;;;12.58;73.13;98710.88;4963265;28;46138;-53
2022/04/07 06:45:14;;;;;;;;;0.00;0.00;;;;;12.56;73.67;98712.84;4979751;28;45395;-54
2022/04/07 06:47:40;;;;;;;;;0.00;0.00;;;;;12.48;73.69;98702.06;4954072;28;45493;-52
2022/04/07 06:50:08;;;;;;;;;1.00;1.00;;;;;12.53;73.65;98713.16;4956530;28;46541;-55
2022/04/07 06:52:34;;;;;;;;;1.00;1.00;;;;;12.49;72.77;98715.25;4974130;28;45370;-54
2022/04/07 06:54:59;;;;;;;;;1.67;1.67;;;;;12.51;73.48;98709.78;4973947;28;45500;-53
2022/04/07 06:57:25;;;;;;;;;1.00;1.00;;;;;12.52;73.57;98706.97;4964599;28;45829;-53
2022/04/07 06:59:50;;;;;;;;;0.00;0.00;;;;;12.43;73.62;98688.31;4960029;28;45376;-56
2022/04/07 07:02:15;;;;;;;;;2.00;0.00;;;;;12.52;73.73;98704.31;4975045;28;46033;-54
2022/04/07 07:04:41;;;;;;;;;1.00;1.00;;;;;12.56;73.69;98702.19;4972889;28;45530;-54
2022/04/07 07:07:06;;;;;;;;;2.00;0.67;;;;;12.54;73.69;98709.50;4954349;28;45444;-55
2022/04/07 07:09:32;;;;;;;;;1.33;1.00;;;;;12.54;73.86;98699.66;4955691;28;45504;-54
2022/04/07 07:11:57;;;;;;;;;2.00;0.67;;;;;12.58;74.11;98695.72;4955534;28;45452;-55
2022/04/07 07:14:22;;;;;;;;;0.00;0.00;;;;;12.60;73.50;98707.06;4954636;28;45413;-53
2022/04/07 07:16:48;;;;;;;;;1.00;1.00;;;;;12.66;73.77;98698.50;4955700;28;45237;-56
2022/04/07 07:19:15;;;;;;;;;1.00;1.00;;;;;12.67;73.45;98688.69;4956308;28;45253;-55
2022/04/07 07:21:41;;;;;;;;;1.00;1.00;;;;;12.64;73.41;98675.66;4955357;28;46479;-58
2022/04/07 07:24:07;;;;;;;;;1.00;1.00;;;;;12.71;73.31;98679.41;4961430;28;45728;-57
2022/04/07 07:26:33;;;;;;;;;2.00;0.00;;;;;12.80;73.20;98683.88;4989529;28;45341;-59
2022/04/07 07:28:59;;;;;;;;;1.67;1.67;;;;;12.77;73.38;98662.81;4995142;28;45335;-55
2022/04/07 07:31:24;;;;;;;;;0.00;0.00;;;;;12.92;73.44;98660.50;4994144;28;45573;-54
2022/04/07 07:33:50;;;;;;;;;0.00;0.00;;;;;12.92;73.61;98676.50;5009408;28;45428;-55
2022/04/07 07:36:15;;;;;;;;;0.33;0.33;;;;;12.90;74.19;98666.00;5009597;27;45253;-56
2022/04/07 07:38:40;;;;;;;;;0.00;0.00;;;;;12.94;74.28;98670.03;4968903;28;45497;-54
2022/04/07 07:41:06;;;;;;;;;0.00;0.00;;;;;12.96;73.82;98662.72;4955118;28;45877;-58
2022/04/07 07:43:31;;;;;;;;;1.00;0.00;;;;;13.09;73.26;98666.88;4982949;28;45504;-54
2022/04/07 07:45:57;;;;;;;;;1.00;1.00;;;;;13.13;73.20;98676.25;4973732;28;45434;-54
2022/04/07 07:48:27;;;;;;;;;0.67;0.67;;;;;13.21;72.58;98676.41;4974736;28;45364;-55
2022/04/07 07:50:53;;;;;;;;;0.00;0.00;;;;;13.27;72.45;98643.75;4959923;28;45532;-53
2022/04/07 07:53:18;;;;;;;;;0.00;0.00;;;;;13.35;72.24;98657.19;4953449;28;45356;-55
2022/04/07 07:55:44;;;;;;;;;0.00;0.00;;;;;13.47;72.09;98639.13;4955071;28;45240;-56
2022/04/07 07:58:09;;;;;;;;;0.00;0.00;;;;;13.46;71.61;98665.00;4955513;28;45691;-56
2022/04/07 08:00:35;;;;;;;;;0.00;0.00;;;;;13.40;72.08;98644.22;4953694;28;45371;-54
2022/04/07 08:03:00;;;;;;;;;2.00;0.00;;;;;13.51;71.89;98656.53;5055903;28;45846;-56
2022/04/07 08:05:26;;;;;;;;;0.00;0.00;;;;;13.55;72.18;98642.72;4973797;28;45423;-57
2022/04/07 08:07:51;;;;;;;;;0.00;0.00;;;;;13.53;71.57;98644.69;4973336;28;45184;-56
2022/04/07 08:10:17;;;;;;;;;0.00;0.00;;;;;13.63;71.06;98649.13;4973198;28;45392;-56
2022/04/07 08:12:42;;;;;;;;;0.00;0.00;;;;;13.67;71.61;98650.50;4967336;28;45549;-56
2022/04/07 08:15:09;;;;;;;;;1.00;0.00;;;;;13.68;71.44;98652.19;4954953;28;45300;-57
2022/04/07 08:17:35;;;;;;;;;0.33;0.33;;;;;13.67;71.60;98629.13;4955485;28;45417;-56
2022/04/07 08:20:02;;;;;;;;;0.00;0.00;;;;;13.77;71.78;98641.41;4953670;28;46054;-54
2022/04/07 08:22:27;;;;;;;;;0.33;0.33;;;;;13.74;71.59;98630.19;4955870;28;45342;-53
2022/04/07 08:24:55;;;;;;;;;0.00;0.00;;;;;13.81;71.72;98647.31;4965778;28;45591;-55
2022/04/07 08:27:21;;;;;;;;;0.00;0.00;;;;;13.90;71.14;98637.50;4961312;28;45458;-53
2022/04/07 08:29:46;;;;;;;;;0.00;0.00;;;;;13.97;70.74;98628.72;4962231;28;45631;-55
2022/04/07 08:32:12;;;;;;;;;1.00;0.00;;;;;13.84;69.94;98604.25;4960053;28;45521;-51
2022/04/07 08:34:37;;;;;;;;;0.00;0.00;;;;;14.16;69.96;98631.19;4969399;28;45418;-54
2022/04/07 08:37:04;;;;;;;;;0.00;0.00;;;;;14.30;69.62;98642.31;4962963;28;45366;-53
2022/04/07 08:39:29;;;;;;;;;0.00;0.00;;;;;14.41;68.79;98639.38;4966049;28;45453;-53
2022/04/07 08:41:56;;;;;;;;;0.00;0.00;;;;;14.50;69.40;98630.44;4963663;28;45473;-52
2022/04/07 08:44:24;;;;;;;;;0.00;0.00;;;;;14.63;68.43;98633.53;4980685;28;45330;-54
2022/04/07 08:46:53;;;;;;;;;0.00;0.00;;;;;14.75;68.17;98629.59;4974547;28;45647;-54
2022/04/07 08:49:23;;;;;;;;;0.00;0.00;;;;;14.80;67.54;98623.75;4973486;28;46319;-56
2022/04/07 08:51:53;;;;;;;;;0.00;0.00;;;;;14.85;67.10;98626.78;4973159;28;45537;-53
2022/04/07 08:54:19;;;;;;;;;0.00;0.00;;;;;14.84;66.98;98621.56;4972603;28;45774;-54
2022/04/07 08:56:46;;;;;;;;;0.00;0.00;;;;;14.91;67.12;98619.94;4972621;28;45444;-55
2022/04/07 08:59:12;;;;;;;;;0.00;0.00;;;;;14.92;66.18;98598.38;4955789;28;48074;-54
2022/04/07 09:01:37;;;;;;;;;0.00;0.00;;;;;15.07;66.18;98622.66;4957081;28;45633;-53
2022/04/07 09:04:04;;;;;;;;;1.00;0.00;;;;;15.15;65.68;98617.34;4971596;28;45571;-55
2022/04/07 09:06:33;;;;;;;;;0.00;0.00;;;;;15.18;66.15;98622.38;4994751;27;45283;-53
2022/04/07 09:09:20;;;;;;;;;0.00;0.00;;;;;15.24;65.82;98619.06;4961718;28;46090;-53
2022/04/07 09:11:46;;;;;;;;;0.00;0.00;;;;;15.31;66.09;98641.50;4953364;28;45343;-52
2022/04/07 09:14:12;;;;;;;;;2.00;0.00;;;;;15.31;66.18;98627.25;4953739;28;45450;-54
2022/04/07 09:16:39;;;;;;;;;2.00;0.00;;;;;15.34;66.47;98624.25;4953978;28;45338;-53
2022/04/07 09:19:06;;;;;;;;;0.00;0.00;;;;;15.35;65.91;98621.41;4953624;28;46003;-52
2022/04/07 09:21:34;;;;;;;;;0.00;0.00;;;;;15.35;65.65;98608.00;4953921;28;45239;-54
2022/04/07 09:24:02;;;;;;;;;0.00;0.00;;;;;15.45;64.93;98612.38;4952704;28;45504;-57
2022/04/07 09:26:29;;;;;;;;;0.00;0.00;;;;;15.45;65.25;98590.97;4953993;28;45496;-53
2022/04/07 09:28:56;;;;;;;;;0.00;0.00;;;;;15.56;64.90;98612.91;4953797;28;45361;-55
2022/04/07 09:31:25;;;;;;;;;0.00;0.00;;;;;15.61;64.63;98612.44;4953564;28;45276;-55
2022/04/07 09:33:55;;;;;;;;;0.67;0.00;;;;;15.68;64.37;98615.31;4984037;28;45953;-51
2022/04/07 09:36:22;;;;;;;;;1.00;0.00;;;;;15.76;64.54;98631.41;5060268;27;45578;-52
2022/04/07 09:38:52;;;;;;;;;0.00;0.00;;;;;15.83;64.13;98624.34;5077652;27;46960;-55
2022/04/07 09:41:19;;;;;;;;;0.00;0.00;;;;;15.84;63.79;98645.63;5078081;27;45500;-51
2022/04/07 09:43:49;;;;;;;;;0.00;0.00;;;;;15.83;63.50;98613.63;5079253;27;45365;-52
2022/04/07 09:46:20;;;;;;;;;0.00;0.00;;;;;15.92;63.75;98609.94;5078018;27;45570;-56
2022/04/07 09:49:05;;;;;;;;;0.00;0.00;;;;;15.94;63.61;98645.47;5077601;27;48062;-52
2022/04/07 09:51:47;;;;;;;;;0.00;0.00;;;;;15.73;63.62;98624.50;5079077;27;45400;-52
2022/04/07 09:54:16;;;;;;;;;0.00;0.00;;;;;15.78;64.15;98640.09;5079264;27;45512;-53
2022/04/07 09:56:46;;;;;;;;;0.00;0.00;;;;;15.74;64.72;98649.47;5079067;27;45539;-54
2022/04/07 09:59:21;;;;;;;;;0.00;0.00;;;;;15.67;64.66;98649.31;5078850;27;45795;-54
2022/04/07 10:01:50;;;;;;;;;0.00;0.00;;;;;15.64;65.47;98660.34;5079304;27;45476;-53
2022/04/07 10:04:16;;;;;;;;;0.00;0.00;;;;;15.67;65.74;98664.53;5078048;28;45345;-53
2022/04/07 10:06:43;;;;;;;;;0.00;0.00;;;;;15.70;65.37;98662.38;5078093;28;45352;-52
2022/04/07 10:09:09;;;;;;;;;0.00;0.00;;;;;15.61;65.65;98666.03;5094077;27;46825;-53
2022/04/07 10:11:36;;;;;;;;;1.00;0.00;;;;;15.59;66.78;98690.31;4982111;27;45299;-56
2022/04/07 10:14:02;;;;;;;;;0.00;0.00;;;;;15.47;67.81;98725.56;5002380;28;45417;-55
2022/04/07 10:16:28;;;;;;;;;0.00;0.00;;;;;15.29;70.65;98747.09;4979447;28;45854;-50
2022/04/07 10:18:59;;;;;;;;;0.00;0.00;;;;;15.06;72.77;98762.88;5078764;27;45578;-53
2022/04/07 10:21:49;;;;;;;;;0.00;0.00;;;;;14.91;71.68;98748.41;5047027;27;45449;-56
2022/04/07 10:24:37;;;;;;;;;1.00;1.00;;;;;14.88;71.86;98751.41;4976808;28;45321;-56
2022/04/07 10:27:08;;;;;;;;;0.00;0.00;;;;;14.85;70.65;98741.03;4976940;28;45180;-52
2022/04/07 10:29:34;;;;;;;;;2.00;0.00;;;;;14.82;69.81;98741.31;4991922;28;45401;-58
2022/04/07 10:32:12;;;;;;;;;0.00;0.00;;;;;14.89;70.13;98755.75;5079352;27;45302;-52
2022/04/07 10:34:53;;;;;;;;;0.00;0.00;;;;;14.89;69.86;98787.88;5078127;27;45358;-55
2022/04/07 10:37:40;;;;;;;;;0.00;0.00;;;;;14.88;68.10;98770.16;5078920;27;45378;-57
2022/04/07 10:40:34;;;;;;;;;0.00;0.00;;;;;14.94;68.00;98775.69;5079556;27;45278;-55
2022/04/07 10:43:13;;;;;;;;;0.00;0.00;;;;;15.08;67.38;98798.38;5078928;27;45366;-54
2022/04/07 10:45:44;;;;;;;;;2.00;0.00;;;;;15.19;68.74;98798.09;5079273;27;45299;-55
2022/04/07 10:48:20;;;;;;;;;0.33;0.33;;;;;15.16;68.88;98794.91;4996869;28;45503;-55
2022/04/07 10:50:57;;;;;;;;;0.67;0.00;;;;;15.15;67.86;98803.94;4974422;28;45721;-54
2022/04/07 10:53:26;;;;;;;;;0.00;0.00;;;;;15.14;67.33;98802.25;4975825;28;45397;-56
2022/04/07 10:56:02;;;;;;;;;0.00;0.00;;;;;15.05;66.65;98825.47;4974212;28;45466;-54
2022/04/07 10:58:40;;;;;;;;;1.00;0.00;;;;;14.95;67.29;98816.69;4975501;28;45461;-55
2022/04/07 11:01:06;;;;;;;;;0.00;0.00;;;;;14.95;65.37;98814.00;4971733;28;46190;-55
2022/04/07 11:03:32;;;;;;;;;0.00;0.00;;;;;14.88;65.68;98821.00;4955654;28;45224;-54
2022/04/07 11:06:06;;;;;;;;;0.00;0.00;;;;;14.88;65.51;98812.97;4957664;28;45429;-57
2022/04/07 11:08:32;;;;;;;;;0.00;0.00;;;;;14.85;64.41;98818.66;4974398;28;45234;-56
2022/04/07 11:10:57;;;;;;;;;0.00;0.00;;;;;14.91;64.50;98834.06;4973254;28;48662;-58
2022/04/07 11:13:43;;;;;;;;;0.00;0.00;;;;;14.94;63.86;98820.34;4976959;28;45524;-57
2022/04/07 11:16:36;;;;;;;;;0.00;0.00;;;;;14.98;62.34;98819.91;4985657;27;45412;-57
2022/04/07 11:19:39;;;;;;;;;0.00;0.00;;;;;15.10;62.02;98836.53;4975191;27;45448;-52
2022/04/07 11:22:09;;;;;;;;;0.00;0.00;;;;;15.22;60.84;98826.41;4966866;28;45343;-54
2022/04/07 11:24:42;;;;;;;;;0.00;0.00;;;;;15.20;60.60;98831.91;4962794;28;45453;-56
2022/04/07 11:27:36;;;;;;;;;0.00;0.00;;;;;15.20;58.83;98839.09;4978717;28;45265;-55
2022/04/07 11:30:06;;;;;;;;;0.00;0.00;;;;;15.17;58.67;98828.72;4970727;28;45267;-56
2022/04/07 11:32:32;;;;;;;;;0.00;0.00;;;;;15.18;59.24;98854.50;4965677;28;45346;-56
2022/04/07 11:35:11;;;;;;;;;0.00;0.00;;;;;15.25;59.08;98863.59;4980654;27;45412;-52